Main page
METAR-TAF:

METAR-TAF

Airports :

King Abdulaziz Air Base

Dhahran, Saudi Arabia

latitude: 26-16N, longitude: 050-09E, elevation: 26 m

Current weather observation

The report was made 23 minutes ago, at 20:00 UTC
Wind 3 kt from the North/Northwest
Temperature 34°C
Humidity 34%
Pressure 996 hPa
Visibility 10 km or more
no clouds below 1500 m and no cumulonimbus

METAR: OEDR 162000Z 34003KT CAVOK 34/16 Q0996

Time: 23:23 (20:23 UTC)

Forecast

The report was made 10 hours and 23 minutes ago, at 10:00 UTC
Forecast valid from 16 at 12 UTC to 17 at 18 UTC
Wind 12 kt from the North
Visibility 10 km or more
no clouds below 1500 m and no cumulonimbus
Becoming
from 16 at 18 UTC to 16 at 20 UTC
Wind 5 kt from the West/Northwest
Becoming
from 17 at 06 UTC to 17 at 08 UTC
Wind 15 kt from the North

TAF: OEDR 161000Z 1612/1718 36012KT CAVOK BECMG 1618/1620 30005KT BECMG 1706/1708 01015KT

Weather observations and forecasts of more than 4000 airports (METAR and TAF reports).

The available stations are represented by yellow and red dots on the map.

Hover mouse over dot to see the name of the station.

Then click to see weather observations and forecasts.

To change the map : click on the green buttons with a black cross to zoom in, on the green button with a dash to zoom out, or on the green arrows for adjacent maps.


METAR-TAF: